Hot Springs, Montana
Current Conditions -  °F | °C
As of 5:53 AM on Saturday 25 Oct 2014 (Local Time) from KMLP Reporting Station
Moderate Fog Moderate Fog  
Wind Chill: 28°   Ceiling: 100
Heat Index: 36°   Visibility: 0.25mi
Dew Point: 36°   Wind: 12mph
Humidity: 100%   Direction: 150°SSE
Pressure: 29.89"   Gusts: 20mph
Location:  47.61°N, 114.67°W
Report Text: KMLP 251153Z AUTO 15010G17KT 1/4SM FG VV001 02/02 A2989 RMK AO2 SLP082 70002 T00220022 10022 20022 56020
Loading
Personal Weather Stations






























Interactive Weather Map
Tropical Storm Tracking
New forecast layout! Learn more

10-Day Weather Forecast

Advertisements
Track Severe Weather on mobile